Time;durP1;ratioP1;P1;durP2;ratioP2;P2;SDS_P1;SDS_P2;PMS_P1;PMS_P2;Temp;Humidity;BMP_temperature;BMP_pressure;BME280_temperature;BME280_humidity;BME280_pressure;Samples;Min_cycle;Max_cycle;Signal;HPM_P1;HPM_P2
2023/10/12 00:07:33;;;;;;;52.08;24.55;;;10.00;99.90;;;;;;25632047;23;20020;-49
2023/10/12 00:17:33;;;;;;;69.05;31.83;;;9.90;99.90;;;;;;25590365;23;20019;-51
2023/10/12 00:27:37;;;;;;;53.50;24.75;;;9.90;99.90;;;;;;25590230;23;20371;-50
2023/10/12 00:37:41;;;;;;;75.47;34.50;;;9.90;99.90;;;;;;25590932;23;20005;-50
2023/10/12 00:47:48;;;;;;;63.63;28.95;;;9.70;99.90;;;;;;25589071;23;20056;-53
2023/10/12 00:57:51;;;;;;;82.30;40.03;;;9.70;99.90;;;;;;25602979;23;20449;-59
2023/10/12 01:07:53;;;;;;;89.03;42.28;;;9.80;99.90;;;;;;25587598;23;20063;-59
2023/10/12 01:17:56;;;;;;;91.72;38.75;;;10.10;99.90;;;;;;25587820;23;20013;-58
2023/10/12 01:28:05;;;;;;;83.72;39.13;;;10.00;99.90;;;;;;25589583;23;20067;-58
2023/10/12 01:38:08;;;;;;;103.72;44.28;;;9.80;99.90;;;;;;25630483;23;20068;-59
2023/10/12 01:48:17;;;;;;;111.85;45.00;;;9.90;99.90;;;;;;25588985;23;20428;-53
2023/10/12 01:58:20;;;;;;;96.72;42.70;;;10.00;99.90;;;;;;25589410;23;20020;-50
2023/10/12 02:08:23;;;;;;;67.25;31.75;;;10.10;99.90;;;;;;25588016;23;20005;-59
2023/10/12 02:18:25;;;;;;;85.05;38.38;;;10.00;99.90;;;;;;25587595;23;20001;-54
2023/10/12 02:28:37;;;;;;;88.57;40.17;;;9.70;99.90;;;;;;25587165;23;20016;-49
2023/10/12 02:38:42;;;;;;;107.72;44.53;;;9.50;99.90;;;;;;25628103;23;20005;-58
2023/10/12 02:48:47;;;;;;;111.30;45.90;;;9.60;99.90;;;;;;25587283;23;20092;-59
2023/10/12 02:58:49;;;;;;;98.78;41.83;;;9.70;99.90;;;;;;25586805;23;20020;-49
2023/10/12 03:09:36;;;;;;;86.60;41.28;;;10.20;99.90;;;;;;25585771;23;20009;-59
2023/10/12 03:19:35;;;;;;;102.70;45.40;;;10.10;99.90;;;;;;25574295;23;20274;-51
2023/10/12 03:39:59;;;;;;;111.95;45.72;;;9.70;99.90;;;;;;25086856;23;20058;-58
2023/10/12 03:50:05;;;;;;;113.03;44.03;;;9.60;99.90;;;;;;25087259;23;20010;-58
2023/10/12 04:20:45;;;;;;;125.82;49.40;;;9.50;99.90;;;;;;25502417;23;20009;-52
2023/10/12 04:51:21;;;;;;;136.30;50.90;;;9.50;99.90;;;;;;25508473;23;20001;-50
2023/10/12 05:01:29;;;;;;;117.75;47.85;;;9.70;99.90;;;;;;25631122;23;20009;-59
2023/10/12 05:11:32;;;;;;;129.20;50.75;;;9.90;99.90;;;;;;25630614;23;20341;-52
2023/10/12 05:21:34;;;;;;;114.38;47.63;;;10.20;99.90;;;;;;25587491;23;20405;-59
2023/10/12 05:31:39;;;;;;;120.03;47.33;;;10.50;99.90;;;;;;25589005;23;20383;-59
2023/10/12 05:41:41;;;;;;;104.93;45.17;;;10.60;99.90;;;;;;25588708;23;20110;-59
2023/10/12 05:51:44;;;;;;;91.65;38.42;;;10.50;99.90;;;;;;25587863;23;20040;-52
2023/10/12 06:01:46;;;;;;;90.50;40.92;;;10.30;99.90;;;;;;25629006;23;20012;-50
2023/10/12 06:11:51;;;;;;;104.43;42.65;;;10.30;99.90;;;;;;25588990;23;20100;-50
2023/10/12 06:21:57;;;;;;;90.47;40.05;;;10.30;99.90;;;;;;25586623;23;20009;-52
2023/10/12 06:31:59;;;;;;;84.40;38.00;;;10.90;99.90;;;;;;25627984;23;20001;-59
2023/10/12 06:42:09;;;;;;;69.60;33.95;;;11.20;99.90;;;;;;25586029;23;20466;-58
2023/10/12 06:52:14;;;;;;;69.73;32.47;;;11.30;99.90;;;;;;25617380;23;20009;-59
2023/10/12 07:02:20;;;;;;;61.40;30.65;;;11.50;99.90;;;;;;25585209;23;20290;-59
2023/10/12 07:12:23;;;;;;;51.45;25.80;;;11.90;99.90;;;;;;25627083;23;20071;-51
2023/10/12 07:22:25;;;;;;;55.40;28.77;;;12.60;99.90;;;;;;25584685;23;20063;-60
2023/10/12 07:32:38;;;;;;;54.97;28.05;;;13.40;99.90;;;;;;25585093;23;20001;-52
2023/10/12 07:42:41;;;;;;;54.75;28.58;;;14.50;99.90;;;;;;25624782;23;20432;-61
2023/10/12 08:12:50;;;;;;;50.47;26.02;;;16.90;99.90;;;;;;25583176;23;20005;-50
2023/10/12 08:22:57;;;;;;;50.45;25.83;;;17.20;99.90;;;;;;25589608;23;20084;-62
2023/10/12 08:33:09;;;;;;;43.30;26.25;;;17.60;99.90;;;;;;25632089;23;20001;-62
2023/10/12 08:43:34;;;;;;;40.30;23.00;;;18.20;99.90;;;;;;25631532;23;20005;-63
2023/10/12 08:53:34;;;;;;;48.58;24.55;;;18.20;99.90;;;;;;25589486;23;20392;-64
2023/10/12 09:03:44;;;;;;;42.63;23.55;;;18.60;99.90;;;;;;25590182;23;20401;-64
2023/10/12 09:13:46;;;;;;;42.10;23.80;;;19.00;99.90;;;;;;25630515;23;20009;-64
2023/10/12 09:44:37;;;;;;;36.22;21.88;;;21.30;99.90;;;;;;25629819;23;20012;-63
2023/10/12 09:54:53;;;;;;;36.85;22.63;;;21.40;99.90;;;;;;25615230;23;20523;-63
2023/10/12 10:05:11;;;;;;;44.67;24.17;;;21.40;99.90;;;;;;25628863;23;20005;-53
2023/10/12 10:15:20;;;;;;;34.40;20.73;;;22.00;99.90;;;;;;25628357;23;20009;-50
2023/10/12 10:25:46;;;;;;;28.98;19.63;;;22.10;99.90;;;;;;25628496;23;20012;-63
2023/10/12 10:36:13;;;;;;;32.05;19.75;;;21.90;99.90;;;;;;25586161;23;20034;-62
2023/10/12 10:46:16;;;;;;;32.60;18.63;;;22.90;99.90;;;;;;25628084;23;20380;-63
2023/10/12 10:56:34;;;;;;;30.38;18.17;;;22.90;99.90;;;;;;25585661;23;20017;-54
2023/10/12 11:06:37;;;;;;;34.55;22.00;;;22.50;99.90;;;;;;25626799;23;20008;-64
2023/10/12 11:16:43;;;;;;;40.53;22.05;;;22.20;99.90;;;;;;25586281;23;20289;-62
2023/10/12 11:26:57;;;;;;;32.42;20.55;;;22.80;99.90;;;;;;25626998;23;20005;-62
2023/10/12 11:36:59;;;;;;;33.10;19.88;;;23.80;99.90;;;;;;25625544;23;20024;-62
2023/10/12 11:47:03;;;;;;;29.45;19.05;;;23.70;99.90;;;;;;25584775;23;20391;-63
2023/10/12 11:57:06;;;;;;;30.77;20.38;;;23.60;99.90;;;;;;25558529;23;20032;-63
2023/10/12 12:07:10;;;;;;;42.58;25.10;;;23.20;99.90;;;;;;25585615;23;20616;-63
2023/10/12 12:17:15;;;;;;;41.75;27.75;;;22.90;99.90;;;;;;25583280;23;20448;-52
2023/10/12 12:37:38;;;;;;;46.40;30.35;;;21.20;99.90;;;;;;25623095;23;20005;-62
2023/10/12 12:47:40;;;;;;;56.22;33.00;;;20.10;99.90;;;;;;25581806;23;20032;-62
2023/10/12 12:57:42;;;;;;;64.38;37.22;;;19.00;99.90;;;;;;25581729;23;20511;-62
2023/10/12 13:07:46;;;;;;;67.20;38.88;;;18.20;99.90;;;;;;25587810;23;20079;-62
2023/10/12 13:17:47;;;;;;;77.22;44.70;;;17.60;99.90;;;;;;25590849;23;20425;-62
2023/10/12 13:27:51;;;;;;;75.40;42.92;;;16.90;99.90;;;;;;25589255;23;20016;-61
2023/10/12 13:37:53;;;;;;;71.10;41.28;;;16.60;99.90;;;;;;25588137;23;20001;-62
2023/10/12 13:47:55;;;;;;;66.05;39.58;;;16.50;99.90;;;;;;25588465;23;20005;-61
2023/10/12 13:57:57;;;;;;;72.70;41.22;;;16.60;99.90;;;;;;25588264;23;20032;-61
2023/10/12 14:07:59;;;;;;;69.38;39.90;;;16.60;99.90;;;;;;25587249;23;20001;-61
2023/10/12 14:18:04;;;;;;;69.22;39.35;;;16.60;99.90;;;;;;25586124;23;20009;-62
2023/10/12 14:28:06;;;;;;;61.95;37.17;;;16.30;99.90;;;;;;25587518;23;20013;-61
2023/10/12 14:38:16;;;;;;;63.67;36.53;;;16.10;99.90;;;;;;25586301;23;20001;-61
2023/10/12 14:48:18;;;;;;;57.80;33.33;;;16.10;99.90;;;;;;25627363;23;20009;-62
2023/10/12 14:58:26;;;;;;;57.53;32.15;;;16.20;99.90;;;;;;25587072;23;20009;-61
2023/10/12 15:08:28;;;;;;;54.53;31.70;;;16.20;99.90;;;;;;25626387;23;20006;-61
2023/10/12 15:18:31;;;;;;;48.85;29.00;;;16.10;99.90;;;;;;25586323;23;20099;-61
2023/10/12 15:28:36;;;;;;;48.75;29.33;;;15.90;99.90;;;;;;25583792;23;20045;-62
2023/10/12 15:38:40;;;;;;;53.45;32.55;;;15.70;99.90;;;;;;25584250;23;20005;-61
2023/10/12 15:48:43;;;;;;;51.40;32.58;;;15.60;99.90;;;;;;25584013;23;20016;-61
2023/10/12 15:58:52;;;;;;;54.03;32.80;;;15.30;99.90;;;;;;25583812;23;20048;-61
2023/10/12 16:08:53;;;;;;;55.13;32.87;;;15.10;99.90;;;;;;25626408;23;20005;-61
2023/10/12 16:18:55;;;;;;;53.55;31.83;;;14.80;99.90;;;;;;25584173;23;20005;-61
2023/10/12 16:29:00;;;;;;;52.63;31.73;;;14.70;99.90;;;;;;25583781;23;20009;-62
2023/10/12 16:39:03;;;;;;;54.03;31.23;;;14.60;99.90;;;;;;25560023;23;20024;-61
2023/10/12 16:49:06;;;;;;;48.97;30.05;;;14.40;99.90;;;;;;25591641;23;20001;-52
2023/10/12 16:59:16;;;;;;;58.58;35.17;;;14.20;99.90;;;;;;25600318;23;20044;-62
2023/10/12 17:09:17;;;;;;;62.22;35.95;;;13.90;99.90;;;;;;25590177;23;20040;-61
2023/10/12 17:19:19;;;;;;;51.92;30.95;;;13.80;99.90;;;;;;25590407;23;20001;-61
2023/10/12 17:29:22;;;;;;;47.97;29.58;;;13.60;99.90;;;;;;25589964;23;20009;-60
2023/10/12 17:39:33;;;;;;;52.78;29.55;;;13.30;99.90;;;;;;25589833;23;20502;-60
2023/10/12 17:49:35;;;;;;;51.78;30.45;;;13.10;99.90;;;;;;25631242;23;20002;-50
2023/10/12 17:59:46;;;;;;;51.78;30.27;;;13.10;99.90;;;;;;25590147;23;20396;-60
2023/10/12 18:09:49;;;;;;;57.92;32.13;;;13.20;99.90;;;;;;25629353;23;20036;-60
2023/10/12 18:19:53;;;;;;;57.42;31.73;;;13.10;99.90;;;;;;25589623;23;20380;-60
2023/10/12 18:29:55;;;;;;;57.55;31.48;;;13.00;99.90;;;;;;25587308;23;20055;-54
2023/10/12 18:39:57;;;;;;;60.70;33.60;;;13.00;99.90;;;;;;25587433;23;20372;-60
2023/10/12 18:49:58;;;;;;;57.42;32.45;;;13.10;99.90;;;;;;25586863;23;20063;-51
2023/10/12 19:00:00;;;;;;;60.92;33.63;;;13.10;99.90;;;;;;25590906;23;20025;-51
2023/10/12 19:10:06;;;;;;;57.15;32.38;;;13.10;99.90;;;;;;25587401;23;20009;-60
2023/10/12 19:20:10;;;;;;;62.50;32.92;;;13.00;99.90;;;;;;25628142;23;20017;-61
2023/10/12 19:30:13;;;;;;;53.45;30.23;;;12.80;99.90;;;;;;25580563;23;20002;-60
2023/10/12 19:40:18;;;;;;;60.35;32.03;;;12.60;99.90;;;;;;25585137;23;20328;-50
2023/10/12 19:50:20;;;;;;;57.83;33.10;;;12.60;99.90;;;;;;25585750;23;20013;-60
2023/10/12 20:00:25;;;;;;;58.78;32.22;;;12.60;99.90;;;;;;25586473;23;20059;-59
2023/10/12 20:10:26;;;;;;;60.65;32.08;;;12.50;99.90;;;;;;25584074;23;20001;-60
2023/10/12 20:20:39;;;;;;;58.78;32.05;;;12.40;99.90;;;;;;25592410;23;20013;-49
2023/10/12 20:30:46;;;;;;;58.17;30.73;;;12.20;99.90;;;;;;25634918;23;20043;-60
2023/10/12 20:40:48;;;;;;;62.55;31.60;;;11.90;99.90;;;;;;25632590;23;20427;-60
2023/10/12 20:50:56;;;;;;;56.28;31.65;;;11.70;99.90;;;;;;24401951;23;10000068;-60
2023/10/12 21:00:57;;;;;;;59.05;32.95;;;11.70;99.90;;;;;;25346321;23;20014;-60
2023/10/12 21:11:00;;;;;;;60.55;32.80;;;11.80;99.90;;;;;;25345482;23;20334;-60
2023/10/12 21:21:18;;;;;;;58.58;33.63;;;12.10;99.90;;;;;;25345205;23;20049;-60
2023/10/12 21:31:30;;;;;;;61.45;31.95;;;12.20;99.90;;;;;;25385470;23;20422;-51
2023/10/12 21:41:32;;;;;;;60.03;32.15;;;12.30;99.90;;;;;;25385189;23;20002;-60
2023/10/12 21:51:34;;;;;;;64.20;33.25;;;12.40;99.90;;;;;;25343952;23;20342;-60
2023/10/12 22:01:48;;;;;;;52.78;30.02;;;12.50;99.90;;;;;;25358887;23;20512;-60
2023/10/12 22:11:51;;;;;;;51.88;29.88;;;12.70;99.90;;;;;;25383445;23;20006;-60
2023/10/12 22:21:54;;;;;;;58.45;30.73;;;12.70;99.90;;;;;;25342707;23;20006;-60
2023/10/12 22:31:56;;;;;;;55.85;30.25;;;12.70;99.90;;;;;;25342765;23;20057;-53
2023/10/12 22:42:01;;;;;;;53.08;30.00;;;12.60;99.90;;;;;;25342114;23;20328;-61
2023/10/12 22:52:04;;;;;;;56.78;30.55;;;12.60;99.90;;;;;;25342749;23;20077;-60
2023/10/12 23:02:06;;;;;;;59.10;30.50;;;12.60;99.90;;;;;;25341678;23;20013;-60
2023/10/12 23:12:18;;;;;;;55.25;28.35;;;12.60;99.90;;;;;;25341166;23;20516;-60
2023/10/12 23:32:30;;;;;;;49.85;27.20;;;12.30;99.90;;;;;;25381983;23;20006;-60
2023/10/12 23:42:33;;;;;;;52.08;28.50;;;12.10;99.90;;;;;;25340213;23;20068;-60
2023/10/12 23:52:57;;;;;;;54.63;28.45;;;11.70;99.90;;;;;;25338723;23;20010;-54
